createdAt,value
2022-08-12T00:01:05.872Z,101333.06
2022-08-12T00:02:26.194Z,101339.28
2022-08-12T00:03:46.362Z,101333.94
2022-08-12T00:05:07.803Z,101339.84
2022-08-12T00:06:28.698Z,101326.25
2022-08-12T00:07:50.515Z,101337.22
2022-08-12T00:09:11.400Z,101330.91
2022-08-12T00:10:32.206Z,101332.72
2022-08-12T00:11:53.211Z,101332.41
2022-08-12T00:13:13.490Z,101336.72
2022-08-12T00:14:33.982Z,101334.03
2022-08-12T00:15:55.044Z,101328.59
2022-08-12T00:17:16.191Z,101328.25
2022-08-12T00:18:36.648Z,101335.47
2022-08-12T00:19:56.927Z,101332.72
2022-08-12T00:21:18.030Z,101330.97
2022-08-12T00:22:39.611Z,101332.25
2022-08-12T00:24:01.465Z,101323.56
2022-08-12T00:26:00.545Z,101330.53
2022-08-12T00:27:05.703Z,101335.56
2022-08-12T00:28:26.184Z,101333.69
2022-08-12T00:29:48.276Z,101332.28
2022-08-12T00:31:08.898Z,101333.16
2022-08-12T00:32:35.419Z,101332.84
2022-08-12T00:33:57.124Z,101330.22
2022-08-12T00:35:19.185Z,101336.22
2022-08-12T00:36:45.125Z,101336.97
2022-08-12T00:38:05.364Z,101332.06
2022-08-12T00:39:26.192Z,101339.38
2022-08-12T00:40:47.389Z,101329.78
2022-08-12T00:42:08.907Z,101330.09
2022-08-12T00:43:15.092Z,101334.28
2022-08-12T00:44:20.997Z,101335.88
2022-08-12T00:45:24.778Z,101335.31
2022-08-12T00:46:40.076Z,101333.78
2022-08-12T00:47:43.402Z,101336.38
2022-08-12T00:48:46.288Z,101336.69
2022-08-12T00:49:52.119Z,101339.81
2022-08-12T00:50:56.017Z,101337.44
2022-08-12T00:52:06.570Z,101339.81
2022-08-12T00:53:09.449Z,101347.22
2022-08-12T00:54:11.347Z,101340.69
2022-08-12T00:55:13.446Z,101341.28
2022-08-12T00:56:20.253Z,101341.56
2022-08-12T00:57:24.680Z,101336.78
2022-08-12T00:58:28.832Z,101342.22
2022-08-12T00:59:31.636Z,101342.22
2022-08-12T01:00:35.263Z,101338.47
2022-08-12T01:02:10.624Z,101346.59
2022-08-12T01:03:03.092Z,101349.56
2022-08-12T01:04:27.227Z,101350.94
2022-08-12T01:05:49.926Z,101344.19
2022-08-12T01:07:16.407Z,101347.75
2022-08-12T01:08:36.992Z,101346.91
2022-08-12T01:09:59.630Z,101347.03
2022-08-12T01:11:19.825Z,101343.47
2022-08-12T01:12:21.889Z,101345.75
2022-08-12T01:13:24.662Z,101344.81
2022-08-12T01:14:27.212Z,101340.44
2022-08-12T01:15:31.330Z,101337.31
2022-08-12T01:16:33.089Z,101332.19
2022-08-12T01:17:35.052Z,101341.16
2022-08-12T01:18:40.212Z,101329.41
2022-08-12T01:19:42.021Z,101338.22
2022-08-12T01:22:23.658Z,101337.84
2022-08-12T01:23:50.176Z,101339.19
2022-08-12T01:25:06.818Z,101339.03
2022-08-12T01:26:11.206Z,101344.44
2022-08-12T01:27:17.016Z,101335.63
2022-08-12T01:28:21.103Z,101341.38
2022-08-12T01:29:28.565Z,101334.78
2022-08-12T01:30:36.797Z,101341.00
2022-08-12T01:31:41.347Z,101331.13
2022-08-12T01:32:47.671Z,101335.97
2022-08-12T01:34:36.466Z,101340.63
2022-08-12T01:35:38.044Z,101333.34
2022-08-12T01:36:46.779Z,101336.66
2022-08-12T01:38:04.393Z,101333.44
2022-08-12T01:39:06.176Z,101341.97
2022-08-12T01:40:33.474Z,101334.56
2022-08-12T01:41:38.706Z,101336.31
2022-08-12T01:42:48.146Z,101338.94
2022-08-12T01:43:51.937Z,101329.59
2022-08-12T01:44:54.706Z,101330.28
2022-08-12T01:46:06.562Z,101332.13
2022-08-12T01:47:43.063Z,101335.34
2022-08-12T01:48:47.844Z,101336.72
2022-08-12T01:50:26.923Z,101338.19
2022-08-12T01:52:15.689Z,101326.94
2022-08-12T01:53:12.982Z,101335.94
2022-08-12T01:54:22.220Z,101333.31
2022-08-12T01:55:33.457Z,101335.56
2022-08-12T01:57:07.092Z,101340.94
2022-08-12T01:58:27.372Z,101326.34
2022-08-12T01:59:49.657Z,101337.47
2022-08-12T02:01:09.088Z,101334.75
2022-08-12T02:02:19.649Z,101327.78
2022-08-12T02:03:52.482Z,101330.31
2022-08-12T02:05:19.113Z,101329.66
2022-08-12T02:06:47.281Z,101321.19
2022-08-12T02:08:19.879Z,101317.91
2022-08-12T02:09:52.880Z,101326.44
2022-08-12T02:11:30.244Z,101322.06
2022-08-12T02:12:59.212Z,101326.69
2022-08-12T02:14:25.250Z,101321.78
2022-08-12T02:15:49.018Z,101332.47
2022-08-12T02:17:24.039Z,101327.69
2022-08-12T02:19:03.519Z,101332.06
2022-08-12T02:20:58.236Z,101321.03
2022-08-12T02:22:05.972Z,101328.31
2022-08-12T02:23:11.304Z,101324.09
2022-08-12T02:24:20.104Z,101330.22
2022-08-12T02:25:27.531Z,101330.50
2022-08-12T02:26:32.668Z,101321.16
2022-08-12T02:27:41.738Z,101326.75
2022-08-12T02:28:43.586Z,101327.81
2022-08-12T02:29:45.265Z,101327.38
2022-08-12T02:30:47.085Z,101326.59
2022-08-12T02:31:50.057Z,101328.75
2022-08-12T02:32:54.230Z,101325.63
2022-08-12T02:33:58.851Z,101330.53
2022-08-12T02:35:01.841Z,101337.59
2022-08-12T02:36:05.136Z,101326.94
2022-08-12T02:37:09.091Z,101327.88
2022-08-12T02:38:12.789Z,101333.66
2022-08-12T02:39:18.265Z,101327.81
2022-08-12T02:40:21.458Z,101321.41
2022-08-12T02:41:26.147Z,101325.03
2022-08-12T02:42:33.003Z,101320.56
2022-08-12T02:43:43.225Z,101317.69
2022-08-12T02:44:49.373Z,101323.69
2022-08-12T02:46:00.454Z,101317.69
2022-08-12T02:47:06.231Z,101314.16
2022-08-12T02:48:10.558Z,101321.56
2022-08-12T02:49:44.207Z,101325.47
2022-08-12T02:50:51.752Z,101322.56
2022-08-12T02:51:54.943Z,101319.59
2022-08-12T02:53:00.484Z,101320.38
2022-08-12T02:54:06.206Z,101321.41
2022-08-12T02:55:28.529Z,101325.59
2022-08-12T02:56:40.633Z,101318.53
2022-08-12T02:57:44.630Z,101316.59
2022-08-12T02:58:46.547Z,101314.97
2022-08-12T02:59:50.431Z,101318.38
2022-08-12T03:00:52.420Z,101319.06
2022-08-12T03:01:59.326Z,101319.75
2022-08-12T03:03:05.644Z,101317.91
2022-08-12T03:04:20.233Z,101315.13
2022-08-12T03:05:25.470Z,101321.22
2022-08-12T03:06:32.464Z,101328.81
2022-08-12T03:07:59.114Z,101321.56
2022-08-12T03:09:03.639Z,101330.28
2022-08-12T03:10:12.145Z,101323.91
2022-08-12T03:11:30.238Z,101323.91
2022-08-12T03:12:49.349Z,101326.53
2022-08-12T03:14:00.213Z,101335.72
2022-08-12T03:15:06.630Z,101335.56
2022-08-12T03:16:08.939Z,101331.63
2022-08-12T03:17:19.620Z,101329.09
2022-08-12T03:18:32.769Z,101326.00
2022-08-12T03:19:34.666Z,101330.28
2022-08-12T03:20:40.990Z,101332.50
2022-08-12T03:22:05.734Z,101330.94
2022-08-12T03:23:19.326Z,101327.16
2022-08-12T03:24:33.573Z,101333.19
2022-08-12T03:25:40.139Z,101331.97
2022-08-12T03:26:44.955Z,101330.91
2022-08-12T03:27:58.517Z,101332.38
2022-08-12T03:29:04.456Z,101331.59
2022-08-12T03:30:06.828Z,101331.59
2022-08-12T03:31:09.878Z,101336.41
2022-08-12T03:32:35.603Z,101332.03
2022-08-12T03:33:38.071Z,101339.41
2022-08-12T03:34:41.062Z,101330.66
2022-08-12T03:35:47.260Z,101338.72
2022-08-12T03:36:50.412Z,101337.16
2022-08-12T03:38:05.634Z,101338.38
2022-08-12T03:39:17.135Z,101339.59
2022-08-12T03:40:38.103Z,101334.81
2022-08-12T03:42:30.547Z,101340.03
2022-08-12T03:43:56.951Z,101334.38
2022-08-12T03:45:42.043Z,101331.81
2022-08-12T03:47:25.407Z,101332.78
2022-08-12T03:48:46.027Z,101334.44
2022-08-12T03:50:07.371Z,101334.78
2022-08-12T03:51:29.623Z,101335.06
2022-08-12T03:52:49.925Z,101330.97
2022-08-12T03:54:11.735Z,101334.59
2022-08-12T03:55:32.824Z,101335.84
2022-08-12T03:56:53.414Z,101341.94
2022-08-12T03:58:13.718Z,101341.50
2022-08-12T03:59:33.973Z,101340.22
2022-08-12T04:00:40.514Z,101344.41
2022-08-12T04:01:42.775Z,101342.28
2022-08-12T04:02:45.780Z,101340.00
2022-08-12T04:03:53.660Z,101341.69
2022-08-12T04:04:58.282Z,101342.91
2022-08-12T04:06:00.526Z,101349.28
2022-08-12T04:07:09.780Z,101350.84
2022-08-12T04:08:12.002Z,101345.44
2022-08-12T04:09:14.828Z,101341.88
2022-08-12T04:10:20.169Z,101344.50
2022-08-12T04:11:46.914Z,101346.13
2022-08-12T04:13:19.792Z,101341.28
2022-08-12T04:14:21.629Z,101348.84
2022-08-12T04:15:27.810Z,101349.91
2022-08-12T04:16:29.919Z,101347.03
2022-08-12T04:17:32.334Z,101350.88
2022-08-12T04:18:35.465Z,101351.31
2022-08-12T04:19:40.081Z,101346.00
2022-08-12T04:20:43.014Z,101349.41
2022-08-12T04:22:01.638Z,101343.63
2022-08-12T04:23:08.538Z,101339.06
2022-08-12T04:24:11.634Z,101342.75
2022-08-12T04:25:14.507Z,101342.13
2022-08-12T04:26:16.498Z,101348.00
2022-08-12T04:27:18.214Z,101346.75
2022-08-12T04:28:27.795Z,101346.84
2022-08-12T04:30:29.148Z,101348.28
2022-08-12T04:30:52.140Z,101347.31
2022-08-12T04:31:58.575Z,101342.78
2022-08-12T04:33:00.684Z,101347.09
2022-08-12T04:34:03.629Z,101341.63
2022-08-12T04:35:05.902Z,101346.13
2022-08-12T04:36:08.178Z,101349.94
2022-08-12T04:37:10.169Z,101339.94
2022-08-12T04:38:12.652Z,101348.50
2022-08-12T04:39:14.577Z,101353.81
2022-08-12T04:40:17.963Z,101355.25
2022-08-12T04:41:31.188Z,101355.66
2022-08-12T04:42:33.063Z,101351.53
2022-08-12T04:43:55.318Z,101350.34
2022-08-12T04:44:57.967Z,101356.75
2022-08-12T04:45:59.771Z,101356.66
2022-08-12T04:47:01.964Z,101355.09
2022-08-12T04:48:04.475Z,101355.88
2022-08-12T04:49:06.262Z,101349.63
2022-08-12T04:50:33.749Z,101348.94
2022-08-12T04:51:34.567Z,101357.41
2022-08-12T04:52:38.549Z,101355.81
2022-08-12T04:53:41.710Z,101353.22
2022-08-12T04:54:44.095Z,101349.72
2022-08-12T04:55:47.705Z,101360.44
2022-08-12T04:57:04.285Z,101354.81
2022-08-12T04:58:07.951Z,101358.53
2022-08-12T04:59:09.774Z,101365.97
2022-08-12T05:00:13.675Z,101357.19
2022-08-12T05:01:15.840Z,101359.66
2022-08-12T05:02:22.797Z,101366.41
2022-08-12T05:03:26.692Z,101362.38
2022-08-12T05:04:29.220Z,101363.94
2022-08-12T05:05:35.912Z,101365.22
2022-08-12T05:06:38.144Z,101362.59
2022-08-12T05:07:46.594Z,101361.03
2022-08-12T05:09:00.695Z,101361.38
2022-08-12T05:10:03.819Z,101373.50
2022-08-12T05:11:06.182Z,101363.09
2022-08-12T05:12:08.864Z,101370.28
2022-08-12T05:13:14.585Z,101373.16
2022-08-12T05:14:19.723Z,101366.09
2022-08-12T05:15:29.464Z,101366.94
2022-08-12T05:16:34.345Z,101374.56
2022-08-12T05:17:37.937Z,101368.25
2022-08-12T05:18:40.380Z,101374.09
2022-08-12T05:19:47.641Z,101370.06
2022-08-12T05:20:50.923Z,101373.13
2022-08-12T05:21:52.619Z,101380.28
2022-08-12T05:23:12.469Z,101375.22
2022-08-12T05:24:14.971Z,101374.72
2022-08-12T05:25:20.237Z,101373.78
2022-08-12T05:26:24.887Z,101373.66
2022-08-12T05:27:26.547Z,101371.72
2022-08-12T05:28:30.311Z,101374.78
2022-08-12T05:30:05.743Z,101375.22
2022-08-12T05:30:54.324Z,101377.25
2022-08-12T05:31:58.095Z,101378.38
2022-08-12T05:33:05.313Z,101383.63
2022-08-12T05:34:07.029Z,101374.19
2022-08-12T05:35:10.290Z,101376.47
2022-08-12T05:36:14.747Z,101376.28
2022-08-12T05:37:22.229Z,101378.28
2022-08-12T05:38:42.524Z,101369.38
2022-08-12T05:39:44.281Z,101375.75
2022-08-12T05:40:46.044Z,101370.50
2022-08-12T05:41:47.713Z,101375.19
2022-08-12T05:42:49.525Z,101378.72
2022-08-12T05:44:00.564Z,101381.59
2022-08-12T05:45:02.113Z,101378.28
2022-08-12T05:46:03.926Z,101376.78
2022-08-12T05:47:07.104Z,101383.41
2022-08-12T05:48:08.770Z,101380.59
2022-08-12T05:49:10.553Z,101385.28
2022-08-12T05:50:12.461Z,101378.72
2022-08-12T05:51:19.607Z,101383.22
2022-08-12T05:52:21.482Z,101387.09
2022-08-12T05:53:23.880Z,101389.13
2022-08-12T05:54:41.220Z,101389.50
2022-08-12T05:55:47.479Z,101384.94
2022-08-12T05:56:49.260Z,101388.44
2022-08-12T05:57:57.627Z,101389.50
2022-08-12T05:59:01.529Z,101388.94
2022-08-12T06:00:06.067Z,101391.81
2022-08-12T06:02:10.727Z,101394.31
2022-08-12T06:02:35.849Z,101388.44
2022-08-12T06:03:37.631Z,101391.91
2022-08-12T06:04:41.184Z,101394.44
2022-08-12T06:05:55.088Z,101387.94
2022-08-12T06:06:57.582Z,101392.94
2022-08-12T06:08:02.840Z,101394.78
2022-08-12T06:09:05.255Z,101390.28
2022-08-12T06:10:07.180Z,101400.13
2022-08-12T06:11:08.942Z,101396.19
2022-08-12T06:12:11.639Z,101397.56
2022-08-12T06:13:25.714Z,101410.63
2022-08-12T06:14:39.351Z,101399.63
2022-08-12T06:15:41.202Z,101401.47
2022-08-12T06:16:44.083Z,101398.69
2022-08-12T06:17:46.552Z,101401.31
2022-08-12T06:18:52.139Z,101400.75
2022-08-12T06:20:28.201Z,101396.72
2022-08-12T06:21:18.449Z,101403.50
2022-08-12T06:22:20.205Z,101392.69
2022-08-12T06:23:21.795Z,101388.78
2022-08-12T06:24:24.283Z,101389.88
2022-08-12T06:25:29.227Z,101397.50
2022-08-12T06:26:30.957Z,101391.91
2022-08-12T06:27:33.514Z,101391.97
2022-08-12T06:28:37.175Z,101395.03
2022-08-12T06:30:07.956Z,101397.06
2022-08-12T06:32:27.462Z,101390.69
2022-08-12T06:34:00.182Z,101393.72
2022-08-12T06:35:25.391Z,101391.31
2022-08-12T06:36:20.929Z,101384.00
2022-08-12T06:37:25.413Z,101379.69
2022-08-12T06:38:29.281Z,101392.78
2022-08-12T06:39:31.340Z,101387.66
2022-08-12T06:40:51.885Z,101392.88
2022-08-12T06:42:31.981Z,101387.13
2022-08-12T06:44:04.864Z,101393.56
2022-08-12T06:44:55.728Z,101385.94
2022-08-12T06:45:58.578Z,101391.81
2022-08-12T06:47:00.461Z,101382.91
2022-08-12T06:48:08.514Z,101387.19
2022-08-12T06:49:13.317Z,101384.91
2022-08-12T06:50:18.658Z,101381.25
2022-08-12T06:51:20.721Z,101390.31
2022-08-12T06:52:25.042Z,101389.56
2022-08-12T06:53:26.786Z,101390.03
2022-08-12T06:54:31.151Z,101390.28
2022-08-12T06:55:33.946Z,101384.66
2022-08-12T06:58:07.674Z,101383.25
2022-08-12T06:59:14.126Z,101381.34
2022-08-12T07:00:22.668Z,101385.97
2022-08-12T07:01:33.096Z,101387.81
2022-08-12T07:02:37.166Z,101382.81
2022-08-12T07:03:39.318Z,101380.03
2022-08-12T07:04:41.090Z,101386.47
2022-08-12T07:05:43.751Z,101383.38
2022-08-12T07:06:45.921Z,101382.91
2022-08-12T07:07:47.883Z,101378.53
2022-08-12T07:08:49.792Z,101379.28
2022-08-12T07:10:00.181Z,101379.63
2022-08-12T07:11:13.320Z,101383.69
2022-08-12T07:12:19.471Z,101385.81
2022-08-12T07:13:22.063Z,101383.00
2022-08-12T07:14:23.719Z,101379.72
2022-08-12T07:15:25.697Z,101375.09
2022-08-12T07:16:48.098Z,101387.44
2022-08-12T07:17:50.085Z,101385.19
2022-08-12T07:18:53.767Z,101387.53
2022-08-12T07:19:59.351Z,101386.03
2022-08-12T07:21:06.618Z,101388.94
2022-08-12T07:22:09.910Z,101390.13
2022-08-12T07:23:12.132Z,101388.47
2022-08-12T07:24:15.627Z,101382.41
2022-08-12T07:25:41.076Z,101388.44
2022-08-12T07:26:44.687Z,101392.47
2022-08-12T07:27:46.771Z,101392.72
2022-08-12T07:28:49.547Z,101397.53
2022-08-12T07:30:03.588Z,101394.09
2022-08-12T07:31:08.990Z,101395.44
2022-08-12T07:32:10.607Z,101396.63
2022-08-12T07:33:13.485Z,101396.88
2022-08-12T07:34:17.437Z,101403.13
2022-08-12T07:35:20.328Z,101401.25
2022-08-12T07:36:22.863Z,101401.81
2022-08-12T07:37:24.513Z,101402.81
2022-08-12T07:38:33.681Z,101397.47
2022-08-12T07:39:35.614Z,101396.63
2022-08-12T07:40:37.390Z,101391.75
2022-08-12T07:41:39.833Z,101390.13
2022-08-12T07:42:41.717Z,101391.16
2022-08-12T07:43:49.916Z,101392.19
2022-08-12T07:44:51.895Z,101391.25
2022-08-12T07:45:56.413Z,101391.31
2022-08-12T07:46:58.166Z,101387.44
2022-08-12T07:47:59.811Z,101391.44
2022-08-12T07:49:05.315Z,101386.06
2022-08-12T07:50:09.426Z,101387.44
2022-08-12T07:51:12.394Z,101395.75
2022-08-12T07:52:28.190Z,101391.84
2022-08-12T07:53:29.995Z,101394.75
2022-08-12T07:54:31.880Z,101395.13
2022-08-12T07:55:33.878Z,101384.91
2022-08-12T07:56:38.264Z,101392.84
2022-08-12T07:57:53.313Z,101393.09
2022-08-12T07:58:59.561Z,101388.50
2022-08-12T08:00:05.565Z,101384.84
2022-08-12T08:01:15.663Z,101388.66
2022-08-12T08:02:17.363Z,101386.19
2022-08-12T08:03:19.066Z,101387.72
2022-08-12T08:04:39.901Z,101393.16
2022-08-12T08:05:46.543Z,101388.13
2022-08-12T08:06:49.500Z,101382.47
2022-08-12T08:07:53.372Z,101393.69
2022-08-12T08:08:56.741Z,101390.03
2022-08-12T08:10:05.017Z,101392.34
2022-08-12T08:11:25.232Z,101385.66
2022-08-12T08:12:47.376Z,101378.47
2022-08-12T08:13:49.301Z,101388.84
2022-08-12T08:14:52.842Z,101381.06
2022-08-12T08:16:04.354Z,101380.97
2022-08-12T08:17:06.681Z,101388.53
2022-08-12T08:18:11.553Z,101378.59
2022-08-12T08:19:19.197Z,101386.94
2022-08-12T08:20:23.446Z,101378.03
2022-08-12T08:21:32.951Z,101378.06
2022-08-12T08:22:41.435Z,101380.03
2022-08-12T08:24:05.285Z,101385.31
2022-08-12T08:25:34.758Z,101381.91
2022-08-12T08:26:29.482Z,101376.81
2022-08-12T08:27:47.235Z,101381.72
2022-08-12T08:28:48.886Z,101368.22
2022-08-12T08:29:51.070Z,101369.91
2022-08-12T08:30:53.022Z,101374.38
2022-08-12T08:31:58.360Z,101373.28
2022-08-12T08:33:00.284Z,101375.84
2022-08-12T08:34:49.394Z,101378.28
2022-08-12T08:35:26.074Z,101374.97
2022-08-12T08:36:40.543Z,101376.16
2022-08-12T08:37:46.439Z,101381.66
2022-08-12T08:38:53.270Z,101377.75
2022-08-12T08:40:20.097Z,101382.22
2022-08-12T08:42:18.278Z,101385.25
2022-08-12T08:43:02.623Z,101375.81
2022-08-12T08:44:04.918Z,101378.69
2022-08-12T08:45:12.984Z,101386.22
2022-08-12T08:46:14.892Z,101379.00
2022-08-12T08:47:21.973Z,101386.38
2022-08-12T08:48:24.576Z,101387.25
2022-08-12T08:49:26.202Z,101385.34
2022-08-12T08:50:28.579Z,101386.75
2022-08-12T08:51:31.214Z,101383.47
2022-08-12T08:52:45.515Z,101387.34
2022-08-12T08:53:48.346Z,101384.75
2022-08-12T08:54:54.827Z,101384.25
2022-08-12T08:56:05.535Z,101381.84
2022-08-12T08:57:08.515Z,101372.47
2022-08-12T08:58:11.050Z,101375.06
2022-08-12T08:59:13.819Z,101376.09
2022-08-12T09:00:18.285Z,101368.72
2022-08-12T09:01:22.459Z,101363.91
2022-08-12T09:02:24.234Z,101366.50
2022-08-12T09:05:09.237Z,101366.50
2022-08-12T09:05:11.235Z,101362.41
2022-08-12T09:06:09.729Z,101360.38
2022-08-12T09:07:43.872Z,101364.47
2022-08-12T09:08:41.996Z,101363.50
2022-08-12T09:10:02.911Z,101362.63
2022-08-12T09:12:07.301Z,101353.78
2022-08-12T09:13:06.308Z,101351.19
2022-08-12T09:15:35.951Z,101351.78
2022-08-12T09:16:42.737Z,101348.75
2022-08-12T09:17:56.971Z,101348.03
2022-08-12T09:18:58.779Z,101345.09
2022-08-12T09:20:02.300Z,101349.44
2022-08-12T09:21:06.270Z,101348.34
2022-08-12T09:22:08.661Z,101351.25
2022-08-12T09:23:58.735Z,101344.00
2022-08-12T09:24:36.364Z,101349.97
2022-08-12T09:25:42.792Z,101349.84
2022-08-12T09:26:46.890Z,101350.16
2022-08-12T09:28:03.780Z,101358.34
2022-08-12T09:29:12.054Z,101357.53
2022-08-12T09:30:16.166Z,101349.50
2022-08-12T09:32:04.382Z,101357.53
2022-08-12T09:33:04.751Z,101354.16
2022-08-12T09:34:26.772Z,101352.34
2022-08-12T09:35:29.171Z,101350.34
2022-08-12T09:36:48.845Z,101348.66
2022-08-12T09:37:59.342Z,101353.69
2022-08-12T09:40:02.394Z,101348.53
2022-08-12T09:40:57.963Z,101349.34
2022-08-12T09:42:40.561Z,101348.63
2022-08-12T09:43:53.824Z,101350.31
2022-08-12T09:45:24.676Z,101346.19
2022-08-12T09:46:45.545Z,101342.72
2022-08-12T09:47:59.642Z,101343.41
2022-08-12T09:49:04.156Z,101343.09
2022-08-12T09:50:22.304Z,101335.38
2022-08-12T09:51:37.523Z,101348.63
2022-08-12T09:52:46.122Z,101341.38
2022-08-12T09:54:05.550Z,101333.88
2022-08-12T09:55:59.658Z,101329.81
2022-08-12T09:57:00.422Z,101324.28
2022-08-12T09:58:47.064Z,101326.16
2022-08-12T10:00:17.720Z,101327.81
2022-08-12T10:00:52.880Z,101334.28
2022-08-12T10:02:53.071Z,101327.31
2022-08-12T10:03:32.512Z,101332.25
2022-08-12T10:04:51.808Z,101326.63
2022-08-12T10:06:20.112Z,101328.75
2022-08-12T10:07:23.010Z,101322.75
2022-08-12T10:08:30.476Z,101312.66
2022-08-12T10:09:56.880Z,101320.28
2022-08-12T10:11:19.907Z,101308.53
2022-08-12T10:12:41.227Z,101312.59
2022-08-12T10:13:46.226Z,101308.72
2022-08-12T10:14:52.458Z,101304.38
2022-08-12T10:16:01.830Z,101316.94
2022-08-12T10:17:08.800Z,101314.75
2022-08-12T10:18:17.191Z,101306.31
2022-08-12T10:19:21.150Z,101308.28
2022-08-12T10:20:41.889Z,101303.59
2022-08-12T10:21:45.253Z,101294.44
2022-08-12T10:23:01.899Z,101298.47
2022-08-12T10:24:23.238Z,101288.63
2022-08-12T10:26:36.752Z,101291.31
2022-08-12T10:27:23.996Z,101291.25
2022-08-12T10:29:02.087Z,101291.25
2022-08-12T10:30:40.309Z,101280.94
2022-08-12T10:31:26.917Z,101287.72
2022-08-12T10:32:58.568Z,101288.00
2022-08-12T10:34:06.610Z,101292.19
2022-08-12T10:35:10.777Z,101282.91
2022-08-12T10:36:12.531Z,101287.28
2022-08-12T10:38:10.625Z,101284.38
2022-08-12T10:38:41.595Z,101284.03
2022-08-12T10:40:00.633Z,101282.16
2022-08-12T10:41:57.840Z,101289.25
2022-08-12T10:43:06.793Z,101282.72
2022-08-12T10:44:12.557Z,101276.97
2022-08-12T10:45:19.436Z,101281.41
2022-08-12T10:46:30.910Z,101273.44
2022-08-12T10:48:16.010Z,101268.06
2022-08-12T10:49:05.664Z,101263.44
2022-08-12T10:50:29.558Z,101273.28
2022-08-12T10:52:03.057Z,101268.81
2022-08-12T10:53:05.325Z,101267.56
2022-08-12T10:54:13.523Z,101257.31
2022-08-12T10:55:16.213Z,101258.91
2022-08-12T10:56:18.679Z,101249.94
2022-08-12T10:57:50.247Z,101256.25
2022-08-12T10:58:46.067Z,101251.66
2022-08-12T11:00:35.452Z,101240.53
2022-08-12T11:03:01.518Z,101262.91
2022-08-12T11:04:23.648Z,101243.38
2022-08-12T11:04:26.250Z,101249.53
2022-08-12T11:07:06.337Z,101255.09
2022-08-12T11:07:07.466Z,101249.16
2022-08-12T11:08:36.832Z,101239.19
2022-08-12T11:09:42.030Z,101246.69
2022-08-12T11:10:57.597Z,101241.22
2022-08-12T11:12:35.905Z,101240.03
2022-08-12T11:13:46.225Z,101239.50
2022-08-12T11:14:51.389Z,101236.53
2022-08-12T11:16:03.550Z,101243.25
2022-08-12T11:17:34.127Z,101233.06
2022-08-12T11:18:40.690Z,101235.69
2022-08-12T11:19:43.711Z,101220.31
2022-08-12T11:20:47.663Z,101216.22
2022-08-12T11:21:57.781Z,101217.03
2022-08-12T11:23:03.517Z,101210.53
2022-08-12T11:24:06.936Z,101219.34
2022-08-12T11:25:56.798Z,101229.06
2022-08-12T11:26:51.650Z,101217.50
2022-08-12T11:27:53.469Z,101224.25
2022-08-12T11:29:05.565Z,101224.81
2022-08-12T11:30:31.649Z,101216.09
2022-08-12T11:31:30.537Z,101223.00
2022-08-12T11:32:52.151Z,101211.78
2022-08-12T11:34:05.426Z,101225.97
2022-08-12T11:35:18.026Z,101215.88
2022-08-12T11:36:22.101Z,101219.78
2022-08-12T11:37:25.683Z,101219.16
2022-08-12T11:38:28.280Z,101211.13
2022-08-12T11:40:53.636Z,101221.75
2022-08-12T11:41:55.595Z,101213.75
2022-08-12T11:43:19.188Z,101210.56
2022-08-12T11:44:36.722Z,101220.03
2022-08-12T11:45:47.276Z,101211.34
2022-08-12T11:46:51.260Z,101207.81
2022-08-12T11:47:56.240Z,101198.88
2022-08-12T11:48:57.863Z,101209.81
2022-08-12T11:49:59.774Z,101211.22
2022-08-12T11:51:02.992Z,101212.53
2022-08-12T11:52:27.264Z,101212.91
2022-08-12T11:53:59.050Z,101213.88
2022-08-12T11:54:51.092Z,101203.22
2022-08-12T11:55:55.178Z,101202.13
2022-08-12T11:57:02.690Z,101189.44
2022-08-12T11:58:09.500Z,101200.09
2022-08-12T12:02:10.384Z,101197.13
2022-08-12T12:03:12.810Z,101199.88
2022-08-12T12:04:28.959Z,101203.53
2022-08-12T12:05:41.748Z,101193.91
2022-08-12T12:06:52.996Z,101197.25
2022-08-12T12:08:37.560Z,101195.78
2022-08-12T12:09:17.791Z,101183.56
2022-08-12T12:10:20.613Z,101191.03
2022-08-12T12:11:22.936Z,101199.59
2022-08-12T12:12:32.487Z,101202.03
2022-08-12T12:14:06.436Z,101192.38
2022-08-12T12:15:03.061Z,101191.66
2022-08-12T12:16:09.437Z,101193.84
2022-08-12T12:17:11.280Z,101191.81
2022-08-12T12:18:31.703Z,101195.00
2022-08-12T12:19:45.345Z,101186.38
2022-08-12T12:20:49.186Z,101187.16
2022-08-12T12:21:50.895Z,101195.09
2022-08-12T12:22:52.509Z,101194.84
2022-08-12T12:24:00.780Z,101183.94
2022-08-12T12:25:13.401Z,101179.34
2022-08-12T12:26:35.454Z,101185.81
2022-08-12T12:28:06.296Z,101176.06
2022-08-12T12:30:13.473Z,101186.00
2022-08-12T12:30:30.482Z,101184.94
2022-08-12T12:32:10.223Z,101182.03
2022-08-12T12:32:58.158Z,101177.41
2022-08-12T12:33:59.817Z,101176.56
2022-08-12T12:35:13.561Z,101175.56
2022-08-12T12:36:29.637Z,101186.16
2022-08-12T12:38:05.302Z,101167.47
2022-08-12T12:38:53.933Z,101174.28
2022-08-12T12:39:58.326Z,101173.34
2022-08-12T12:41:00.114Z,101157.63
2022-08-12T12:42:49.784Z,101158.91
2022-08-12T12:43:43.546Z,101162.28
2022-08-12T12:44:51.051Z,101157.03
2022-08-12T12:45:57.037Z,101163.75
2022-08-12T12:46:59.123Z,101161.91
2022-08-12T12:48:09.970Z,101149.03
2022-08-12T12:49:15.455Z,101148.78
2022-08-12T12:50:35.107Z,101153.44
2022-08-12T12:51:49.345Z,101157.66
2022-08-12T12:53:00.182Z,101162.13
2022-08-12T12:54:06.491Z,101161.53
2022-08-12T12:55:11.024Z,101157.56
2022-08-12T12:56:33.865Z,101151.94
2022-08-12T12:58:00.453Z,101144.19
2022-08-12T12:59:06.107Z,101146.47
2022-08-12T13:00:15.345Z,101156.16
2022-08-12T13:01:27.959Z,101150.44
2022-08-12T13:02:40.415Z,101141.19
2022-08-12T13:03:49.004Z,101143.31
2022-08-12T13:04:51.365Z,101142.72
2022-08-12T13:06:00.539Z,101148.38
2022-08-12T13:07:02.890Z,101136.78
2022-08-12T13:08:28.371Z,101141.91
2022-08-12T13:09:38.229Z,101138.44
2022-08-12T13:10:50.296Z,101126.50
2022-08-12T13:11:54.815Z,101126.84
2022-08-12T13:14:10.047Z,101125.53
2022-08-12T13:14:28.005Z,101131.22
2022-08-12T13:15:45.257Z,101129.53
2022-08-12T13:16:49.401Z,101117.31
2022-08-12T13:18:02.050Z,101122.88
2022-08-12T13:19:07.853Z,101127.53
2022-08-12T13:20:10.253Z,101125.06
2022-08-12T13:21:15.783Z,101128.66
2022-08-12T13:22:34.799Z,101134.44
2022-08-12T13:23:37.817Z,101135.63
2022-08-12T13:24:40.245Z,101125.97
2022-08-12T13:25:42.045Z,101127.56
2022-08-12T13:26:45.789Z,101122.94
2022-08-12T13:27:48.398Z,101132.69
2022-08-12T13:28:55.999Z,101124.13
2022-08-12T13:30:01.970Z,101122.03
2022-08-12T13:31:06.475Z,101110.81
2022-08-12T13:32:19.670Z,101120.00
2022-08-12T13:34:32.947Z,101120.38
2022-08-12T13:34:53.432Z,101115.03
2022-08-12T13:36:11.169Z,101118.38
2022-08-12T13:37:17.674Z,101122.03
2022-08-12T13:38:34.146Z,101112.84